createdAt,value
2018-08-10T00:00:48.436Z,0.00
2018-08-10T00:01:48.430Z,0.00
2018-08-10T00:02:48.439Z,0.00
2018-08-10T00:03:48.409Z,0.00
2018-08-10T00:04:48.393Z,0.00
2018-08-10T00:05:48.389Z,0.00
2018-08-10T00:06:48.367Z,0.00
2018-08-10T00:07:48.381Z,0.00
2018-08-10T00:08:48.418Z,0.00
2018-08-10T00:09:48.369Z,0.00
2018-08-10T00:10:48.326Z,0.00
2018-08-10T00:11:48.316Z,0.00
2018-08-10T00:12:48.321Z,0.00
2018-08-10T00:13:48.295Z,0.00
2018-08-10T00:14:48.281Z,0.00
2018-08-10T00:15:48.270Z,0.00
2018-08-10T00:16:48.262Z,0.00
2018-08-10T00:17:48.269Z,0.00
2018-08-10T00:18:48.247Z,0.00
2018-08-10T00:19:48.226Z,0.00
2018-08-10T00:20:48.246Z,0.00
2018-08-10T00:21:48.210Z,0.00
2018-08-10T00:22:48.211Z,0.00
2018-08-10T00:23:48.180Z,0.00
2018-08-10T00:24:48.171Z,0.00
2018-08-10T00:25:48.156Z,0.00
2018-08-10T00:26:48.157Z,0.00
2018-08-10T00:27:48.157Z,0.00
2018-08-10T00:28:48.128Z,0.00
2018-08-10T00:29:48.111Z,0.00
2018-08-10T00:30:48.121Z,0.00
2018-08-10T00:31:48.100Z,0.00
2018-08-10T00:32:48.109Z,0.00
2018-08-10T00:33:48.076Z,0.00
2018-08-10T00:34:48.057Z,0.00
2018-08-10T00:35:48.341Z,0.00
2018-08-10T00:36:48.061Z,0.00
2018-08-10T00:37:48.023Z,0.00
2018-08-10T00:38:48.017Z,0.00
2018-08-10T00:39:48.003Z,0.00
2018-08-10T00:40:47.992Z,0.00
2018-08-10T00:41:48.001Z,0.00
2018-08-10T00:42:47.989Z,0.00
2018-08-10T00:43:47.994Z,0.00
2018-08-10T00:44:47.952Z,0.00
2018-08-10T00:45:47.933Z,0.00
2018-08-10T00:46:47.926Z,0.00
2018-08-10T00:47:47.935Z,0.00
2018-08-10T00:48:47.931Z,0.00
2018-08-10T00:49:47.894Z,0.00
2018-08-10T00:50:47.883Z,0.00
2018-08-10T00:51:47.868Z,0.00
2018-08-10T00:52:47.863Z,0.00
2018-08-10T00:53:47.867Z,0.00
2018-08-10T00:54:47.842Z,0.00
2018-08-10T00:55:47.827Z,0.00
2018-08-10T00:56:47.814Z,0.00
2018-08-10T00:57:47.804Z,0.00
2018-08-10T00:58:47.811Z,0.00
2018-08-10T00:59:47.784Z,0.00
2018-08-10T01:00:47.774Z,0.00
2018-08-10T01:01:47.761Z,0.00
2018-08-10T01:02:47.744Z,0.00
2018-08-10T01:03:47.754Z,0.00
2018-08-10T01:04:47.726Z,0.00
2018-08-10T01:05:47.723Z,0.00
2018-08-10T01:06:47.719Z,0.00
2018-08-10T01:07:47.700Z,0.00
2018-08-10T01:08:47.709Z,0.00
2018-08-10T01:09:47.673Z,0.00
2018-08-10T01:10:47.654Z,0.00
2018-08-10T01:11:47.652Z,0.00
2018-08-10T01:12:47.647Z,0.00
2018-08-10T01:13:47.638Z,0.00
2018-08-10T01:14:47.642Z,0.00
2018-08-10T01:15:47.603Z,0.00
2018-08-10T01:16:47.609Z,0.00
2018-08-10T01:17:47.589Z,0.00
2018-08-10T01:18:47.853Z,0.00
2018-08-10T01:19:47.590Z,0.00
2018-08-10T01:20:47.568Z,0.00
2018-08-10T01:21:47.538Z,0.00
2018-08-10T01:22:47.527Z,0.00
2018-08-10T01:23:47.509Z,0.00
2018-08-10T01:24:47.525Z,0.00
2018-08-10T01:25:47.497Z,0.00
2018-08-10T01:26:47.482Z,0.00
2018-08-10T01:27:47.476Z,0.00
2018-08-10T01:28:47.549Z,0.00
2018-08-10T01:29:47.454Z,0.00
2018-08-10T01:30:47.436Z,0.00
2018-08-10T01:31:47.435Z,0.00
2018-08-10T01:32:47.416Z,0.00
2018-08-10T01:33:47.416Z,0.00
2018-08-10T01:34:47.416Z,0.00
2018-08-10T01:35:47.384Z,0.00
2018-08-10T01:36:47.372Z,0.00
2018-08-10T01:37:47.360Z,0.00
2018-08-10T01:38:47.405Z,0.00
2018-08-10T01:39:47.335Z,0.00
2018-08-10T01:40:47.323Z,0.00
2018-08-10T01:41:47.333Z,0.00
2018-08-10T01:42:47.300Z,0.00
2018-08-10T01:43:47.308Z,0.00
2018-08-10T01:44:47.284Z,0.00
2018-08-10T01:45:47.270Z,0.00
2018-08-10T01:46:47.287Z,0.00
2018-08-10T01:47:47.274Z,0.00
2018-08-10T01:48:47.241Z,0.00
2018-08-10T01:49:47.228Z,0.00
2018-08-10T01:50:47.214Z,0.00
2018-08-10T01:51:47.225Z,0.00
2018-08-10T01:52:47.192Z,0.00
2018-08-10T01:53:47.179Z,0.00
2018-08-10T01:54:47.171Z,0.00
2018-08-10T01:55:47.178Z,0.00
2018-08-10T01:56:47.151Z,0.00
2018-08-10T01:57:47.144Z,0.00
2018-08-10T01:58:47.148Z,0.00
2018-08-10T01:59:47.118Z,0.00
2018-08-10T02:00:47.104Z,0.00
2018-08-10T02:01:47.092Z,0.00
2018-08-10T02:02:47.086Z,0.00
2018-08-10T02:03:47.092Z,0.00
2018-08-10T02:04:47.077Z,0.00
2018-08-10T02:05:47.048Z,0.00
2018-08-10T02:06:47.037Z,0.00
2018-08-10T02:07:47.035Z,0.00
2018-08-10T02:08:47.026Z,0.00
2018-08-10T02:09:47.032Z,0.00
2018-08-10T02:10:47.012Z,0.00
2018-08-10T02:11:46.999Z,0.00
2018-08-10T02:12:46.980Z,0.00
2018-08-10T02:13:46.962Z,0.00
2018-08-10T02:14:46.971Z,0.00
2018-08-10T02:15:46.938Z,0.00
2018-08-10T02:16:46.924Z,0.00
2018-08-10T02:17:46.920Z,0.00
2018-08-10T02:18:46.908Z,0.00
2018-08-10T02:19:46.921Z,0.00
2018-08-10T02:20:46.880Z,0.00
2018-08-10T02:21:46.874Z,0.00
2018-08-10T02:22:46.861Z,0.00
2018-08-10T02:23:46.894Z,0.00
2018-08-10T02:24:46.910Z,0.00
2018-08-10T02:25:46.825Z,0.00
2018-08-10T02:26:46.814Z,0.00
2018-08-10T02:27:46.803Z,0.00
2018-08-10T02:28:46.794Z,0.00
2018-08-10T02:29:46.802Z,0.00
2018-08-10T02:30:46.777Z,0.00
2018-08-10T02:31:46.779Z,0.00
2018-08-10T02:32:46.756Z,0.00
2018-08-10T02:33:46.739Z,0.00
2018-08-10T02:34:46.748Z,0.00
2018-08-10T02:35:46.719Z,0.00
2018-08-10T02:36:46.712Z,0.00
2018-08-10T02:37:46.689Z,0.00
2018-08-10T02:38:46.701Z,0.00
2018-08-10T02:39:46.683Z,0.00
2018-08-10T02:40:46.674Z,0.00
2018-08-10T02:41:46.644Z,0.00
2018-08-10T02:42:46.640Z,0.00
2018-08-10T02:43:46.629Z,0.00
2018-08-10T02:44:46.852Z,0.00
2018-08-10T02:45:46.620Z,0.00
2018-08-10T02:46:46.593Z,0.00
2018-08-10T02:47:46.598Z,0.00
2018-08-10T02:48:46.572Z,0.00
2018-08-10T02:49:46.598Z,0.00
2018-08-10T02:50:46.560Z,0.00
2018-08-10T02:51:46.562Z,0.00
2018-08-10T02:52:46.530Z,0.00
2018-08-10T02:53:46.512Z,0.00
2018-08-10T02:54:46.521Z,0.00
2018-08-10T02:55:46.493Z,0.00
2018-08-10T02:56:46.476Z,0.00
2018-08-10T02:57:46.465Z,0.00
2018-08-10T02:58:46.460Z,0.00
2018-08-10T02:59:46.734Z,0.00
2018-08-10T03:00:46.451Z,0.00
2018-08-10T03:01:46.430Z,0.00
2018-08-10T03:02:46.413Z,0.00
2018-08-10T03:03:46.400Z,0.00
2018-08-10T03:04:46.392Z,0.00
2018-08-10T03:05:46.409Z,0.00
2018-08-10T03:06:46.370Z,0.00
2018-08-10T03:07:46.362Z,0.00
2018-08-10T03:08:46.346Z,0.00
2018-08-10T03:09:46.352Z,0.00
2018-08-10T03:10:46.325Z,0.00
2018-08-10T03:11:46.318Z,0.00
2018-08-10T03:12:46.298Z,0.00
2018-08-10T03:13:46.291Z,0.00
2018-08-10T03:14:46.282Z,0.00
2018-08-10T03:15:46.285Z,0.00
2018-08-10T03:16:46.255Z,0.00
2018-08-10T03:17:46.262Z,0.00
2018-08-10T03:18:46.347Z,0.00
2018-08-10T03:19:46.226Z,0.00
2018-08-10T03:20:46.232Z,0.00
2018-08-10T03:21:46.207Z,0.00
2018-08-10T03:22:46.211Z,0.00
2018-08-10T03:23:46.188Z,0.00
2018-08-10T03:24:46.170Z,0.00
2018-08-10T03:25:46.182Z,0.00
2018-08-10T03:26:46.149Z,0.00
2018-08-10T03:27:46.138Z,0.00
2018-08-10T03:28:46.156Z,0.00
2018-08-10T03:29:46.115Z,0.00
2018-08-10T03:30:46.127Z,0.00
2018-08-10T03:31:46.096Z,0.00
2018-08-10T03:32:46.080Z,0.00
2018-08-10T03:33:46.070Z,0.00
2018-08-10T03:34:46.077Z,0.00
2018-08-10T03:35:46.062Z,0.00
2018-08-10T03:36:46.037Z,0.00
2018-08-10T03:37:46.048Z,0.00
2018-08-10T03:38:46.017Z,0.00
2018-08-10T03:39:45.997Z,0.00
2018-08-10T03:40:46.012Z,0.00
2018-08-10T03:41:45.985Z,0.00
2018-08-10T03:42:45.965Z,0.00
2018-08-10T03:43:45.955Z,0.00
2018-08-10T03:44:45.951Z,0.00
2018-08-10T03:45:46.196Z,0.00
2018-08-10T03:46:45.922Z,0.00
2018-08-10T03:47:45.909Z,0.00
2018-08-10T03:48:45.896Z,0.00
2018-08-10T03:49:45.909Z,0.00
2018-08-10T03:50:45.875Z,0.00
2018-08-10T03:51:45.898Z,0.00
2018-08-10T03:52:45.857Z,0.00
2018-08-10T03:53:45.840Z,0.00
2018-08-10T03:54:45.838Z,0.00
2018-08-10T03:55:45.844Z,0.00
2018-08-10T03:56:45.816Z,0.00
2018-08-10T03:57:45.805Z,0.00
2018-08-10T03:58:45.808Z,0.00
2018-08-10T03:59:45.778Z,0.00
2018-08-10T04:00:45.783Z,0.00
2018-08-10T04:01:45.778Z,0.00
2018-08-10T04:02:45.751Z,0.00
2018-08-10T04:03:45.729Z,0.00
2018-08-10T04:04:45.726Z,0.00
2018-08-10T04:05:45.727Z,0.00
2018-08-10T04:06:45.714Z,0.00
2018-08-10T04:07:45.684Z,0.00
2018-08-10T04:08:45.694Z,0.00
2018-08-10T04:09:45.667Z,0.00
2018-08-10T04:10:45.681Z,0.00
2018-08-10T04:11:45.656Z,0.00
2018-08-10T04:12:45.642Z,0.00
2018-08-10T04:13:45.651Z,0.00
2018-08-10T04:14:45.630Z,0.00
2018-08-10T04:15:45.635Z,0.00
2018-08-10T04:16:45.595Z,0.00
2018-08-10T04:17:45.576Z,0.00
2018-08-10T04:18:45.565Z,4.00
2018-08-10T04:19:45.562Z,4.00
2018-08-10T04:20:45.565Z,4.00
2018-08-10T04:21:45.547Z,4.00
2018-08-10T04:22:45.519Z,4.00
2018-08-10T04:23:45.511Z,4.00
2018-08-10T04:24:45.522Z,4.00
2018-08-10T04:25:45.510Z,0.00
2018-08-10T04:26:45.502Z,0.00
2018-08-10T04:27:45.469Z,0.00
2018-08-10T04:28:45.453Z,4.00
2018-08-10T04:29:45.448Z,4.00
2018-08-10T04:30:45.431Z,4.00
2018-08-10T04:31:45.449Z,4.00
2018-08-10T04:32:45.410Z,4.00
2018-08-10T04:33:45.399Z,4.00
2018-08-10T04:34:45.385Z,4.00
2018-08-10T04:35:45.395Z,4.00
2018-08-10T04:36:45.391Z,4.00
2018-08-10T04:37:45.357Z,4.00
2018-08-10T04:38:45.345Z,4.00
2018-08-10T04:39:45.341Z,4.00
2018-08-10T04:40:45.325Z,4.00
2018-08-10T04:41:45.334Z,4.00
2018-08-10T04:42:45.339Z,4.00
2018-08-10T04:43:45.287Z,4.00
2018-08-10T04:44:45.276Z,4.00
2018-08-10T04:45:45.265Z,4.00
2018-08-10T04:46:45.273Z,8.00
2018-08-10T04:47:45.244Z,4.00
2018-08-10T04:48:45.231Z,8.00
2018-08-10T04:49:45.249Z,8.00
2018-08-10T04:50:45.209Z,8.00
2018-08-10T04:51:45.222Z,4.00
2018-08-10T04:52:45.199Z,8.00
2018-08-10T04:53:45.176Z,8.00
2018-08-10T04:54:45.174Z,8.00
2018-08-10T04:55:45.153Z,8.00
2018-08-10T04:56:45.168Z,8.00
2018-08-10T04:57:45.141Z,8.00
2018-08-10T04:58:45.117Z,8.00
2018-08-10T04:59:45.114Z,8.00
2018-08-10T05:00:45.097Z,8.00
2018-08-10T05:01:45.336Z,8.00
2018-08-10T05:02:45.075Z,12.00
2018-08-10T05:03:45.101Z,12.00
2018-08-10T05:04:45.060Z,8.00
2018-08-10T05:05:45.041Z,12.00
2018-08-10T05:06:45.056Z,12.00
2018-08-10T05:07:45.024Z,12.00
2018-08-10T05:08:45.012Z,8.00
2018-08-10T05:09:45.002Z,12.00
2018-08-10T05:10:44.985Z,12.00
2018-08-10T05:11:45.009Z,12.00
2018-08-10T05:12:44.962Z,8.00
2018-08-10T05:13:44.955Z,8.00
2018-08-10T05:14:44.949Z,12.00
2018-08-10T05:15:44.980Z,12.00
2018-08-10T05:16:44.936Z,12.00
2018-08-10T05:17:44.908Z,12.00
2018-08-10T05:18:44.905Z,12.00
2018-08-10T05:19:44.886Z,8.00
2018-08-10T05:20:44.901Z,12.00
2018-08-10T05:21:44.863Z,12.00
2018-08-10T05:22:44.852Z,12.00
2018-08-10T05:23:44.845Z,12.00
2018-08-10T05:24:44.893Z,16.00
2018-08-10T05:25:44.852Z,12.00
2018-08-10T05:26:44.831Z,12.00
2018-08-10T05:27:44.802Z,12.00
2018-08-10T05:28:44.791Z,16.00
2018-08-10T05:29:44.774Z,16.00
2018-08-10T05:30:44.784Z,12.00
2018-08-10T05:31:44.781Z,12.00
2018-08-10T05:32:44.760Z,12.00
2018-08-10T05:33:44.776Z,12.00
2018-08-10T05:34:44.744Z,12.00
2018-08-10T05:35:44.710Z,16.00
2018-08-10T05:36:44.729Z,16.00
2018-08-10T05:37:44.701Z,16.00
2018-08-10T05:38:44.692Z,16.00
2018-08-10T05:39:44.669Z,16.00
2018-08-10T05:40:44.664Z,24.00
2018-08-10T05:41:44.664Z,20.00
2018-08-10T05:42:44.628Z,20.00
2018-08-10T05:43:44.642Z,20.00
2018-08-10T05:44:44.622Z,24.00
2018-08-10T05:45:44.606Z,20.00
2018-08-10T05:46:44.632Z,20.00
2018-08-10T05:47:44.599Z,16.00
2018-08-10T05:48:44.565Z,16.00
2018-08-10T05:49:44.551Z,20.00
2018-08-10T05:50:44.557Z,20.00
2018-08-10T05:51:44.531Z,20.00
2018-08-10T05:52:44.541Z,20.00
2018-08-10T05:53:44.555Z,20.00
2018-08-10T05:54:44.495Z,20.00
2018-08-10T05:55:44.498Z,20.00
2018-08-10T05:56:44.473Z,20.00
2018-08-10T05:57:44.468Z,20.00
2018-08-10T05:58:44.473Z,24.00
2018-08-10T05:59:44.461Z,24.00
2018-08-10T06:00:44.509Z,32.00
2018-08-10T06:01:44.427Z,24.00
2018-08-10T06:02:44.434Z,20.00
2018-08-10T06:03:44.483Z,20.00
2018-08-10T06:04:44.389Z,20.00
2018-08-10T06:05:44.378Z,24.00
2018-08-10T06:06:44.377Z,24.00
2018-08-10T06:07:44.381Z,24.00
2018-08-10T06:08:44.344Z,28.00
2018-08-10T06:09:44.331Z,32.00
2018-08-10T06:10:44.318Z,32.00
2018-08-10T06:11:44.312Z,36.00
2018-08-10T06:12:44.319Z,36.00
2018-08-10T06:13:44.284Z,32.00
2018-08-10T06:14:44.276Z,36.00
2018-08-10T06:15:44.264Z,32.00
2018-08-10T06:16:44.273Z,36.00
2018-08-10T06:17:44.264Z,36.00
2018-08-10T06:18:44.238Z,36.00
2018-08-10T06:19:44.230Z,40.00
2018-08-10T06:20:44.226Z,36.00
2018-08-10T06:21:44.218Z,40.00
2018-08-10T06:22:44.225Z,40.00
2018-08-10T06:23:44.199Z,40.00
2018-08-10T06:24:44.163Z,44.00
2018-08-10T06:25:44.148Z,44.00
2018-08-10T06:26:44.148Z,48.00
2018-08-10T06:27:44.183Z,44.00
2018-08-10T06:28:44.124Z,40.00
2018-08-10T06:29:44.129Z,40.00
2018-08-10T06:30:44.099Z,44.00
2018-08-10T06:31:44.087Z,44.00
2018-08-10T06:32:44.108Z,44.00
2018-08-10T06:33:44.108Z,48.00
2018-08-10T06:34:44.057Z,44.00
2018-08-10T06:35:44.044Z,48.00
2018-08-10T06:36:44.030Z,48.00
2018-08-10T06:37:44.041Z,48.00
2018-08-10T06:38:44.013Z,52.00
2018-08-10T06:39:44.042Z,48.00
2018-08-10T06:40:43.985Z,48.00
2018-08-10T06:41:43.977Z,52.00
2018-08-10T06:42:44.001Z,52.00
2018-08-10T06:43:43.955Z,56.00
2018-08-10T06:44:43.951Z,52.00
2018-08-10T06:45:43.927Z,56.00
2018-08-10T06:46:43.919Z,56.00
2018-08-10T06:47:43.930Z,60.00
2018-08-10T06:48:43.898Z,64.00
2018-08-10T06:49:43.895Z,64.00
2018-08-10T06:50:43.872Z,64.00
2018-08-10T06:51:43.862Z,68.00
2018-08-10T06:52:43.869Z,72.00
2018-08-10T06:53:43.838Z,72.00
2018-08-10T06:54:43.835Z,80.00
2018-08-10T06:55:43.834Z,80.00
2018-08-10T06:56:43.815Z,80.00
2018-08-10T06:57:43.794Z,84.00
2018-08-10T06:58:43.825Z,84.00
2018-08-10T06:59:43.774Z,84.00
2018-08-10T07:00:43.886Z,80.00
2018-08-10T07:01:43.752Z,84.00
2018-08-10T07:02:43.751Z,88.00
2018-08-10T07:03:43.753Z,84.00
2018-08-10T07:04:43.715Z,88.00
2018-08-10T07:05:43.727Z,88.00
2018-08-10T07:06:43.696Z,92.00
2018-08-10T07:07:43.695Z,92.00
2018-08-10T07:08:43.675Z,96.00
2018-08-10T07:09:43.677Z,96.00
2018-08-10T07:10:43.651Z,104.00
2018-08-10T07:11:43.666Z,100.00
2018-08-10T07:12:43.653Z,100.00
2018-08-10T07:13:43.739Z,96.00
2018-08-10T07:14:43.603Z,104.00
2018-08-10T07:15:43.601Z,104.00
2018-08-10T07:16:43.596Z,108.00
2018-08-10T07:17:43.573Z,104.00
2018-08-10T07:18:43.582Z,104.00
2018-08-10T07:19:43.552Z,108.00
2018-08-10T07:20:43.539Z,108.00
2018-08-10T07:21:43.533Z,108.00
2018-08-10T07:22:43.522Z,108.00
2018-08-10T07:23:43.529Z,112.00
2018-08-10T07:24:43.497Z,112.00
2018-08-10T07:25:43.484Z,112.00
2018-08-10T07:26:43.476Z,112.00
2018-08-10T07:27:43.470Z,112.00
2018-08-10T07:28:43.468Z,112.00
2018-08-10T07:29:43.460Z,112.00
2018-08-10T07:30:43.429Z,108.00
2018-08-10T07:31:43.418Z,116.00
2018-08-10T07:32:43.410Z,116.00
2018-08-10T07:33:43.419Z,112.00
2018-08-10T07:34:43.382Z,108.00
2018-08-10T07:35:43.390Z,108.00
2018-08-10T07:36:43.360Z,116.00
2018-08-10T07:37:43.357Z,112.00
2018-08-10T07:38:43.359Z,116.00
2018-08-10T07:39:43.332Z,116.00
2018-08-10T07:40:43.316Z,116.00
2018-08-10T07:41:43.326Z,116.00
2018-08-10T07:42:43.294Z,116.00
2018-08-10T07:43:43.311Z,120.00
2018-08-10T07:44:43.278Z,120.00
2018-08-10T07:45:43.284Z,120.00
2018-08-10T07:46:43.253Z,116.00
2018-08-10T07:47:43.242Z,112.00
2018-08-10T07:48:43.241Z,116.00
2018-08-10T07:49:43.238Z,100.00
2018-08-10T07:50:43.204Z,24.00
2018-08-10T07:51:43.202Z,116.00
2018-08-10T07:52:43.206Z,116.00
2018-08-10T07:53:43.195Z,24.00
2018-08-10T07:54:43.166Z,116.00
2018-08-10T07:55:43.153Z,112.00
2018-08-10T07:56:43.146Z,116.00
2018-08-10T07:57:43.137Z,116.00
2018-08-10T07:58:43.136Z,116.00
2018-08-10T07:59:43.120Z,120.00
2018-08-10T08:00:43.094Z,116.00
2018-08-10T08:01:43.097Z,120.00
2018-08-10T08:02:43.085Z,128.00
2018-08-10T08:03:43.117Z,136.00
2018-08-10T08:04:43.046Z,144.00
2018-08-10T08:05:43.039Z,144.00
2018-08-10T08:06:43.030Z,144.00
2018-08-10T08:07:43.018Z,144.00
2018-08-10T08:08:43.029Z,148.00
2018-08-10T08:09:43.009Z,156.00
2018-08-10T08:10:42.983Z,108.00
2018-08-10T08:11:42.973Z,52.00
2018-08-10T08:12:42.978Z,56.00
2018-08-10T08:13:43.019Z,48.00
2018-08-10T08:14:42.940Z,44.00
2018-08-10T08:15:42.949Z,48.00
2018-08-10T08:16:42.929Z,52.00
2018-08-10T08:17:42.911Z,44.00
2018-08-10T08:18:42.915Z,36.00
2018-08-10T08:19:42.925Z,32.00
2018-08-10T08:20:42.896Z,28.00
2018-08-10T08:21:42.860Z,32.00
2018-08-10T08:22:42.858Z,124.00
2018-08-10T08:23:42.865Z,128.00
2018-08-10T08:24:42.828Z,128.00
2018-08-10T08:25:42.878Z,128.00
2018-08-10T08:26:42.810Z,44.00
2018-08-10T08:27:42.796Z,124.00
2018-08-10T08:28:42.786Z,136.00
2018-08-10T08:29:42.790Z,128.00
2018-08-10T08:30:42.762Z,128.00
2018-08-10T08:31:42.747Z,48.00
2018-08-10T08:32:42.738Z,128.00
2018-08-10T08:33:42.729Z,128.00
2018-08-10T08:34:42.805Z,136.00
2018-08-10T08:35:42.719Z,44.00
2018-08-10T08:36:42.693Z,136.00
2018-08-10T08:37:42.685Z,148.00
2018-08-10T08:38:42.673Z,116.00
2018-08-10T08:39:42.696Z,136.00
2018-08-10T08:40:42.672Z,48.00
2018-08-10T08:41:42.645Z,52.00
2018-08-10T08:42:42.632Z,88.00
2018-08-10T08:43:42.619Z,140.00
2018-08-10T08:44:42.626Z,144.00
2018-08-10T08:45:42.771Z,52.00
2018-08-10T08:46:42.600Z,80.00
2018-08-10T08:47:42.570Z,144.00
2018-08-10T08:48:42.562Z,132.00
2018-08-10T08:49:42.569Z,136.00
2018-08-10T08:50:42.556Z,60.00
2018-08-10T08:51:42.552Z,144.00
2018-08-10T08:52:42.539Z,60.00
2018-08-10T08:53:42.507Z,156.00
2018-08-10T08:54:42.505Z,124.00
2018-08-10T08:55:42.504Z,144.00
2018-08-10T08:56:42.503Z,148.00
2018-08-10T08:57:42.464Z,56.00
2018-08-10T08:58:42.450Z,44.00
2018-08-10T08:59:42.443Z,52.00
2018-08-10T09:00:42.470Z,44.00
2018-08-10T09:01:42.428Z,40.00
2018-08-10T09:02:42.407Z,104.00
2018-08-10T09:03:42.402Z,56.00
2018-08-10T09:04:42.386Z,148.00
2018-08-10T09:05:42.413Z,148.00
2018-08-10T09:06:42.363Z,140.00
2018-08-10T09:07:42.457Z,152.00
2018-08-10T09:08:42.345Z,148.00
2018-08-10T09:09:42.329Z,108.00
2018-08-10T09:10:42.343Z,136.00
2018-08-10T09:11:42.303Z,92.00
2018-08-10T09:12:42.295Z,48.00
2018-08-10T09:13:42.282Z,136.00
2018-08-10T09:14:42.275Z,40.00
2018-08-10T09:15:42.286Z,36.00
2018-08-10T09:16:42.251Z,48.00
2018-08-10T09:17:42.373Z,56.00
2018-08-10T09:18:42.252Z,52.00
2018-08-10T09:19:42.220Z,48.00
2018-08-10T09:20:42.238Z,88.00
2018-08-10T09:21:42.213Z,48.00
2018-08-10T09:22:42.185Z,96.00
2018-08-10T09:23:42.193Z,136.00
2018-08-10T09:24:42.163Z,132.00
2018-08-10T09:25:42.209Z,132.00
2018-08-10T09:26:42.141Z,136.00
2018-08-10T09:27:42.131Z,132.00
2018-08-10T09:28:42.130Z,148.00
2018-08-10T09:29:42.115Z,144.00
2018-08-10T09:30:42.099Z,152.00
2018-08-10T09:31:42.105Z,68.00
2018-08-10T09:32:42.075Z,152.00
2018-08-10T09:33:42.079Z,148.00
2018-08-10T09:34:42.055Z,144.00
2018-08-10T09:35:42.043Z,132.00
2018-08-10T09:36:42.029Z,48.00
2018-08-10T09:37:42.015Z,116.00
2018-08-10T09:38:42.187Z,64.00
2018-08-10T09:39:41.997Z,44.00
2018-08-10T09:40:42.007Z,40.00
2018-08-10T09:41:41.976Z,36.00
2018-08-10T09:42:41.965Z,40.00
2018-08-10T09:43:41.952Z,44.00
2018-08-10T09:44:41.940Z,128.00
2018-08-10T09:45:41.927Z,132.00
2018-08-10T09:46:41.938Z,132.00
2018-08-10T09:47:41.905Z,128.00
2018-08-10T09:48:41.901Z,128.00
2018-08-10T09:49:41.883Z,128.00
2018-08-10T09:50:41.869Z,132.00
2018-08-10T09:51:42.165Z,144.00
2018-08-10T09:52:41.851Z,140.00
2018-08-10T09:53:41.836Z,140.00
2018-08-10T09:54:41.830Z,80.00
2018-08-10T09:55:41.821Z,156.00
2018-08-10T09:56:41.805Z,144.00
2018-08-10T09:57:41.816Z,152.00
2018-08-10T09:58:41.787Z,100.00
2018-08-10T09:59:41.835Z,136.00
2018-08-10T10:00:41.764Z,128.00
2018-08-10T10:01:41.788Z,120.00
2018-08-10T10:02:41.748Z,40.00
2018-08-10T10:03:41.731Z,44.00
2018-08-10T10:04:41.725Z,32.00
2018-08-10T10:05:41.704Z,32.00
2018-08-10T10:06:41.710Z,36.00
2018-08-10T10:07:41.704Z,52.00
2018-08-10T10:08:41.676Z,44.00
2018-08-10T10:09:41.660Z,116.00
2018-08-10T10:10:41.655Z,120.00
2018-08-10T10:11:41.657Z,100.00
2018-08-10T10:12:41.636Z,128.00
2018-08-10T10:13:41.629Z,124.00
2018-08-10T10:14:41.603Z,128.00
2018-08-10T10:15:41.601Z,128.00
2018-08-10T10:16:41.607Z,128.00
2018-08-10T10:17:41.570Z,56.00
2018-08-10T10:18:41.580Z,132.00
2018-08-10T10:19:41.552Z,148.00
2018-08-10T10:20:41.540Z,140.00
2018-08-10T10:21:41.555Z,144.00
2018-08-10T10:22:41.516Z,68.00
2018-08-10T10:23:41.506Z,96.00
2018-08-10T10:24:41.505Z,76.00
2018-08-10T10:25:41.490Z,84.00
2018-08-10T10:26:41.491Z,136.00
2018-08-10T10:27:41.474Z,76.00
2018-08-10T10:28:41.466Z,120.00
2018-08-10T10:29:41.445Z,52.00
2018-08-10T10:30:41.477Z,56.00
2018-08-10T10:31:41.436Z,48.00
2018-08-10T10:32:41.436Z,56.00
2018-08-10T10:33:41.395Z,52.00
2018-08-10T10:34:41.386Z,52.00
2018-08-10T10:35:41.398Z,60.00
2018-08-10T10:36:41.367Z,84.00
2018-08-10T10:37:41.354Z,80.00
2018-08-10T10:38:41.344Z,76.00
2018-08-10T10:39:41.330Z,80.00
2018-08-10T10:40:41.342Z,100.00
2018-08-10T10:41:41.323Z,60.00
2018-08-10T10:42:41.299Z,124.00
2018-08-10T10:43:41.291Z,60.00
2018-08-10T10:44:41.283Z,76.00
2018-08-10T10:45:41.268Z,140.00
2018-08-10T10:46:41.283Z,60.00
2018-08-10T10:47:41.245Z,92.00
2018-08-10T10:48:41.247Z,104.00
2018-08-10T10:49:41.220Z,140.00
2018-08-10T10:50:41.224Z,144.00
2018-08-10T10:51:41.227Z,148.00
2018-08-10T10:52:41.185Z,136.00
2018-08-10T10:53:41.297Z,112.00
2018-08-10T10:54:41.163Z,52.00
2018-08-10T10:55:41.155Z,60.00
2018-08-10T10:56:41.259Z,80.00
2018-08-10T10:57:41.129Z,164.00
2018-08-10T10:58:41.139Z,84.00
2018-08-10T10:59:41.107Z,136.00
2018-08-10T11:00:41.093Z,124.00
2018-08-10T11:01:41.089Z,116.00
2018-08-10T11:02:41.075Z,140.00
2018-08-10T11:03:41.088Z,124.00
2018-08-10T11:04:41.051Z,124.00
2018-08-10T11:05:41.080Z,72.00
2018-08-10T11:06:41.039Z,96.00
2018-08-10T11:07:41.029Z,120.00
2018-08-10T11:08:41.056Z,132.00
2018-08-10T11:09:40.997Z,52.00
2018-08-10T11:10:40.983Z,44.00
2018-08-10T11:11:40.974Z,44.00
2018-08-10T11:12:40.974Z,60.00
2018-08-10T11:13:40.973Z,60.00
2018-08-10T11:14:40.943Z,120.00
2018-08-10T11:15:40.929Z,60.00
2018-08-10T11:16:40.920Z,76.00
2018-08-10T11:17:40.905Z,112.00
2018-08-10T11:18:40.914Z,72.00
2018-08-10T11:19:40.886Z,152.00
2018-08-10T11:20:40.876Z,160.00
2018-08-10T11:21:40.880Z,68.00
2018-08-10T11:22:40.852Z,56.00
2018-08-10T11:23:40.870Z,60.00
2018-08-10T11:24:40.831Z,88.00
2018-08-10T11:25:40.923Z,76.00
2018-08-10T11:26:40.814Z,68.00
2018-08-10T11:27:40.801Z,56.00
2018-08-10T11:28:40.787Z,88.00
2018-08-10T11:29:41.046Z,164.00
2018-08-10T11:30:40.763Z,100.00
2018-08-10T11:31:40.754Z,172.00
2018-08-10T11:32:40.738Z,156.00
2018-08-10T11:33:40.729Z,160.00
2018-08-10T11:34:40.718Z,168.00
2018-08-10T11:35:40.735Z,76.00
2018-08-10T11:36:40.720Z,168.00
2018-08-10T11:37:40.712Z,172.00
2018-08-10T11:38:40.705Z,168.00
2018-08-10T11:39:40.659Z,164.00
2018-08-10T11:40:40.659Z,168.00
2018-08-10T11:41:40.755Z,200.00
2018-08-10T11:42:40.631Z,220.00
2018-08-10T11:43:40.651Z,208.00
2018-08-10T11:44:40.638Z,204.00
2018-08-10T11:45:40.599Z,220.00
2018-08-10T11:46:40.599Z,196.00
2018-08-10T11:47:40.578Z,192.00
2018-08-10T11:48:40.585Z,80.00
2018-08-10T11:49:40.582Z,196.00
2018-08-10T11:50:40.545Z,196.00
2018-08-10T11:51:40.526Z,192.00
2018-08-10T11:52:40.652Z,192.00
2018-08-10T11:53:40.528Z,204.00
2018-08-10T11:54:40.496Z,228.00
2018-08-10T11:55:40.483Z,220.00
2018-08-10T11:56:40.471Z,224.00
2018-08-10T11:57:40.462Z,220.00
2018-08-10T11:58:40.475Z,64.00
2018-08-10T11:59:40.442Z,68.00
2018-08-10T12:00:40.431Z,72.00
2018-08-10T12:01:40.423Z,76.00
2018-08-10T12:02:40.424Z,92.00
2018-08-10T12:03:40.415Z,76.00
2018-08-10T12:04:40.385Z,172.00
2018-08-10T12:05:40.414Z,80.00
2018-08-10T12:06:40.384Z,64.00
2018-08-10T12:07:40.352Z,192.00
2018-08-10T12:08:40.348Z,184.00
2018-08-10T12:09:40.332Z,184.00
2018-08-10T12:10:40.315Z,180.00
2018-08-10T12:11:40.312Z,180.00
2018-08-10T12:12:40.336Z,184.00
2018-08-10T12:13:40.312Z,180.00
2018-08-10T12:14:40.270Z,176.00
2018-08-10T12:15:40.292Z,176.00
2018-08-10T12:16:40.252Z,196.00
2018-08-10T12:17:40.238Z,184.00
2018-08-10T12:18:40.253Z,180.00
2018-08-10T12:19:40.222Z,180.00
2018-08-10T12:20:40.238Z,176.00
2018-08-10T12:21:40.197Z,180.00
2018-08-10T12:22:40.188Z,184.00
2018-08-10T12:23:40.192Z,72.00
2018-08-10T12:24:40.195Z,168.00
2018-08-10T12:25:40.158Z,176.00
2018-08-10T12:26:40.145Z,172.00
2018-08-10T12:27:40.133Z,176.00
2018-08-10T12:28:40.134Z,168.00
2018-08-10T12:29:40.104Z,164.00
2018-08-10T12:30:40.097Z,160.00
2018-08-10T12:31:40.118Z,160.00
2018-08-10T12:32:40.075Z,164.00
2018-08-10T12:33:40.087Z,160.00
2018-08-10T12:34:40.053Z,160.00
2018-08-10T12:35:40.042Z,156.00
2018-08-10T12:36:40.032Z,160.00
2018-08-10T12:37:40.029Z,160.00
2018-08-10T12:38:40.017Z,160.00
2018-08-10T12:39:40.034Z,176.00
2018-08-10T12:40:39.988Z,196.00
2018-08-10T12:41:39.969Z,64.00
2018-08-10T12:42:39.961Z,60.00
2018-08-10T12:43:39.948Z,80.00
2018-08-10T12:44:39.969Z,168.00
2018-08-10T12:45:39.936Z,152.00
2018-08-10T12:46:39.994Z,48.00
2018-08-10T12:47:39.903Z,44.00
2018-08-10T12:48:39.898Z,44.00
2018-08-10T12:49:39.898Z,40.00
2018-08-10T12:50:40.024Z,56.00
2018-08-10T12:51:39.860Z,44.00
2018-08-10T12:52:39.855Z,60.00
2018-08-10T12:53:39.838Z,72.00
2018-08-10T12:54:39.855Z,160.00
2018-08-10T12:55:39.837Z,184.00